Time;durP1;ratioP1;P1;durP2;ratioP2;P2;SDS_P1;SDS_P2;PMS_P1;PMS_P2;Temp;Humidity;BMP_temperature;BMP_pressure;BME280_temperature;BME280_humidity;BME280_pressure;Samples;Min_cycle;Max_cycle;Signal;HPM_P1;HPM_P2
2022/09/03 00:02:08;;;;;;;2.13;1.20;;;21.30;40.60;;;;;;5064251;28;20044;-80
2022/09/03 00:04:48;;;;;;;1.30;1.20;;;21.30;40.90;;;;;;5039917;28;20257;-80
2022/09/03 00:07:21;;;;;;;2.42;1.20;;;21.20;41.20;;;;;;5067102;28;20028;-79
2022/09/03 00:09:54;;;;;;;1.20;1.00;;;21.20;41.00;;;;;;5071951;28;20039;-79
2022/09/03 00:12:25;;;;;;;1.27;0.90;;;21.20;40.90;;;;;;5069389;28;20103;-79
2022/09/03 00:14:58;;;;;;;1.95;1.10;;;21.20;41.10;;;;;;5048702;28;20028;-79
2022/09/03 00:17:29;;;;;;;1.23;1.00;;;21.20;41.30;;;;;;5037018;28;20536;-80
2022/09/03 00:20:06;;;;;;;2.15;1.20;;;21.20;41.30;;;;;;5058693;28;20442;-79
2022/09/03 00:22:36;;;;;;;3.28;1.10;;;21.10;41.50;;;;;;5062943;28;20119;-79
2022/09/03 00:25:06;;;;;;;1.77;1.10;;;21.10;41.20;;;;;;5053717;28;20032;-80
2022/09/03 00:27:38;;;;;;;1.67;1.08;;;21.10;41.30;;;;;;5068058;28;20346;-80
2022/09/03 00:30:11;;;;;;;1.80;1.10;;;21.10;41.70;;;;;;5052741;28;20020;-79
2022/09/03 00:32:58;;;;;;;1.42;1.05;;;21.10;41.70;;;;;;5052469;28;20024;-80
2022/09/03 00:35:35;;;;;;;1.23;1.10;;;21.20;42.20;;;;;;5053246;28;20421;-80
2022/09/03 00:38:01;;;;;;;2.27;1.10;;;21.10;41.90;;;;;;5061991;28;20162;-79
2022/09/03 00:40:49;;;;;;;2.13;1.02;;;21.10;41.40;;;;;;5068561;28;20032;-79
2022/09/03 00:43:35;;;;;;;2.00;1.13;;;21.10;42.60;;;;;;5069723;28;20087;-79
2022/09/03 00:46:26;;;;;;;1.90;1.10;;;21.10;42.30;;;;;;5032448;28;20270;-79
2022/09/03 00:48:57;;;;;;;2.03;1.10;;;21.10;42.50;;;;;;5045577;28;20082;-80
2022/09/03 00:52:24;;;;;;;2.60;1.20;;;21.10;41.80;;;;;;5061344;28;20020;-79
2022/09/03 00:55:07;;;;;;;1.75;1.10;;;21.10;42.70;;;;;;4974735;28;20489;-79
2022/09/03 00:57:58;;;;;;;1.48;1.00;;;21.10;42.70;;;;;;4996625;28;20034;-79
2022/09/03 01:00:24;;;;;;;2.38;1.20;;;21.00;42.10;;;;;;5021608;28;20492;-80
2022/09/03 01:03:13;;;;;;;1.30;1.00;;;21.00;41.80;;;;;;5038930;28;20074;-79
2022/09/03 01:05:45;;;;;;;1.25;1.05;;;21.00;42.60;;;;;;5067782;28;20051;-79
2022/09/03 01:08:31;;;;;;;1.35;1.10;;;21.00;42.60;;;;;;5062129;28;20067;-80
2022/09/03 01:11:11;;;;;;;1.63;1.10;;;20.90;42.50;;;;;;5052925;28;20190;-79
2022/09/03 01:13:43;;;;;;;1.95;1.02;;;20.90;42.60;;;;;;5068102;28;20028;-79
2022/09/03 01:16:31;;;;;;;1.40;1.10;;;20.80;42.70;;;;;;5062434;28;20151;-79
2022/09/03 01:19:35;;;;;;;1.63;1.10;;;20.80;42.50;;;;;;5049410;28;20040;-80
2022/09/03 01:22:19;;;;;;;1.83;1.08;;;20.80;43.60;;;;;;5056271;28;20069;-80
2022/09/03 01:25:16;;;;;;;2.25;1.13;;;20.80;42.60;;;;;;5057856;28;20029;-79
2022/09/03 01:28:07;;;;;;;1.38;1.10;;;20.80;43.90;;;;;;5065603;28;20074;-80
2022/09/03 01:30:38;;;;;;;1.33;1.20;;;20.80;44.00;;;;;;5053716;28;20536;-80
2022/09/03 01:33:06;;;;;;;1.10;1.00;;;20.70;43.10;;;;;;5053203;28;20227;-80
2022/09/03 01:35:53;;;;;;;1.35;1.10;;;20.70;43.00;;;;;;5058408;28;20359;-79
2022/09/03 01:38:47;;;;;;;1.85;1.20;;;20.70;43.90;;;;;;5043051;28;20074;-79
2022/09/03 01:44:43;;;;;;;2.87;1.20;;;20.70;43.20;;;;;;5066035;28;20231;-79
2022/09/03 01:47:14;;;;;;;1.95;1.20;;;20.70;43.80;;;;;;5085644;28;20699;-80
2022/09/03 01:49:50;;;;;;;2.47;1.10;;;20.60;43.30;;;;;;5058076;28;20305;-80
2022/09/03 01:52:35;;;;;;;1.77;1.20;;;20.60;43.90;;;;;;5060808;28;20036;-79
2022/09/03 01:55:24;;;;;;;1.27;1.17;;;20.60;44.20;;;;;;5049792;28;20224;-80
2022/09/03 01:58:18;;;;;;;1.40;1.30;;;20.60;44.60;;;;;;5061941;28;20107;-80
2022/09/03 02:00:49;;;;;;;1.75;1.10;;;20.60;44.40;;;;;;5043722;28;20036;-80
2022/09/03 02:03:15;;;;;;;2.00;1.20;;;20.60;43.70;;;;;;5060886;28;20051;-80
2022/09/03 02:05:42;;;;;;;1.30;1.20;;;20.60;43.70;;;;;;5050698;28;20594;-80
2022/09/03 02:08:09;;;;;;;1.58;1.20;;;20.60;43.90;;;;;;5062589;28;20917;-79
2022/09/03 02:10:50;;;;;;;2.97;1.10;;;20.60;44.10;;;;;;5065986;28;20391;-79
2022/09/03 02:13:21;;;;;;;1.70;1.13;;;20.60;44.90;;;;;;5054127;28;20013;-79
2022/09/03 02:15:48;;;;;;;1.90;1.20;;;20.60;44.60;;;;;;5069961;28;20495;-79
2022/09/03 02:18:18;;;;;;;1.80;1.27;;;20.60;44.20;;;;;;5074084;28;20457;-79
2022/09/03 02:20:46;;;;;;;1.48;1.38;;;20.60;44.50;;;;;;5064775;28;20476;-80
2022/09/03 02:23:13;;;;;;;2.37;1.20;;;20.60;44.50;;;;;;5073286;28;20219;-80
2022/09/03 02:25:51;;;;;;;3.22;1.30;;;20.60;44.50;;;;;;5046868;28;20530;-80
2022/09/03 02:28:16;;;;;;;1.70;1.25;;;20.60;45.20;;;;;;5068882;28;20020;-80
2022/09/03 02:30:42;;;;;;;1.45;1.10;;;20.60;44.50;;;;;;5069844;28;20024;-80
2022/09/03 02:33:08;;;;;;;2.60;1.10;;;20.60;44.60;;;;;;5070249;28;20024;-80
2022/09/03 02:35:34;;;;;;;2.17;1.20;;;20.50;44.70;;;;;;5047862;28;20028;-79
2022/09/03 02:38:24;;;;;;;2.00;1.20;;;20.50;44.80;;;;;;5051882;28;20751;-80
2022/09/03 02:40:50;;;;;;;1.45;1.13;;;20.60;45.80;;;;;;5055129;28;20028;-80
2022/09/03 02:43:31;;;;;;;2.58;1.23;;;20.50;44.80;;;;;;5062493;28;20051;-79
2022/09/03 02:46:02;;;;;;;2.30;1.48;;;20.50;45.70;;;;;;5068780;28;20140;-80
2022/09/03 02:48:28;;;;;;;1.50;1.30;;;20.50;45.30;;;;;;5062014;28;20024;-80
2022/09/03 02:50:54;;;;;;;1.90;1.27;;;20.50;45.00;;;;;;5046854;28;20666;-79
2022/09/03 02:53:20;;;;;;;1.50;1.23;;;20.50;45.20;;;;;;5070838;28;20021;-80
2022/09/03 02:55:46;;;;;;;2.50;1.37;;;20.50;45.20;;;;;;5049031;28;20270;-80
2022/09/03 02:58:12;;;;;;;1.63;1.23;;;20.50;45.30;;;;;;5050491;28;20352;-79
2022/09/03 03:00:37;;;;;;;1.45;1.17;;;20.40;45.30;;;;;;5057567;28;20067;-80
2022/09/03 03:03:04;;;;;;;1.83;1.30;;;20.40;45.30;;;;;;5067818;28;20629;-80
2022/09/03 03:05:47;;;;;;;1.58;1.20;;;20.40;45.30;;;;;;5058300;28;20031;-80
2022/09/03 03:08:20;;;;;;;2.10;1.30;;;20.40;45.80;;;;;;5052978;28;20036;-80
2022/09/03 03:10:46;;;;;;;1.55;1.20;;;20.40;45.40;;;;;;5070386;28;20369;-80
2022/09/03 03:13:13;;;;;;;1.38;1.20;;;20.40;45.40;;;;;;5055268;28;20051;-80
2022/09/03 03:15:38;;;;;;;1.27;1.17;;;20.40;45.40;;;;;;5069774;28;20332;-80
2022/09/03 03:18:06;;;;;;;1.45;1.20;;;20.40;45.40;;;;;;5042330;28;20294;-80
2022/09/03 03:20:32;;;;;;;1.30;1.10;;;20.40;45.50;;;;;;5074325;28;20043;-80
2022/09/03 03:23:01;;;;;;;1.40;1.30;;;20.40;45.70;;;;;;5053713;28;20035;-79
2022/09/03 03:25:26;;;;;;;1.90;1.40;;;20.40;46.00;;;;;;5064523;28;20017;-79
2022/09/03 03:27:55;;;;;;;2.70;1.48;;;20.40;45.90;;;;;;5054127;28;20032;-80
2022/09/03 03:30:22;;;;;;;3.13;1.40;;;20.40;46.20;;;;;;5060806;28;20032;-79
2022/09/03 03:32:48;;;;;;;1.30;1.20;;;20.40;46.00;;;;;;5071823;28;20027;-80
2022/09/03 03:35:14;;;;;;;1.77;1.30;;;20.40;46.10;;;;;;5073294;28;20028;-80
2022/09/03 03:37:39;;;;;;;2.03;1.20;;;20.40;46.00;;;;;;5062816;28;20376;-80
2022/09/03 03:40:06;;;;;;;2.93;1.30;;;20.40;46.00;;;;;;5065399;28;20565;-80
2022/09/03 03:42:33;;;;;;;1.40;1.20;;;20.40;46.20;;;;;;5059721;28;20032;-79
2022/09/03 03:45:01;;;;;;;2.00;1.48;;;20.40;46.30;;;;;;5068906;28;20311;-80
2022/09/03 03:47:29;;;;;;;2.05;1.20;;;20.40;46.20;;;;;;5082582;28;20114;-79
2022/09/03 03:49:57;;;;;;;1.40;1.17;;;20.40;46.40;;;;;;5069278;28;20121;-80
2022/09/03 03:52:24;;;;;;;2.08;1.20;;;20.40;46.40;;;;;;5075988;28;20459;-78
2022/09/03 03:54:50;;;;;;;1.95;1.30;;;20.40;46.40;;;;;;5060157;28;20413;-78
2022/09/03 03:57:18;;;;;;;1.92;1.30;;;20.40;46.40;;;;;;5040129;28;20715;-78
2022/09/03 03:59:44;;;;;;;1.50;1.13;;;20.40;46.40;;;;;;5051539;28;20545;-78
2022/09/03 04:02:11;;;;;;;1.30;1.10;;;20.40;46.40;;;;;;5069723;28;20759;-78
2022/09/03 04:04:37;;;;;;;1.35;1.20;;;20.40;46.60;;;;;;5071785;28;20483;-78
2022/09/03 04:07:03;;;;;;;1.35;1.25;;;20.40;46.70;;;;;;5075315;28;20128;-78
2022/09/03 04:09:28;;;;;;;1.20;1.00;;;20.40;46.70;;;;;;5061953;28;20070;-77
2022/09/03 04:11:56;;;;;;;1.80;1.23;;;20.40;46.80;;;;;;5076802;28;20249;-78
2022/09/03 04:14:23;;;;;;;1.90;1.20;;;20.40;46.80;;;;;;5064855;28;20020;-78
2022/09/03 04:16:49;;;;;;;1.40;1.17;;;20.40;46.90;;;;;;5063878;28;20028;-78
2022/09/03 04:19:16;;;;;;;1.93;1.20;;;20.40;47.00;;;;;;5067551;28;20012;-78
2022/09/03 04:21:42;;;;;;;2.17;1.30;;;20.40;46.90;;;;;;5066520;28;20177;-78
2022/09/03 04:24:08;;;;;;;1.55;1.40;;;20.40;47.20;;;;;;5049638;28;20028;-77
2022/09/03 04:26:34;;;;;;;2.33;1.27;;;20.40;47.40;;;;;;5069265;28;20039;-77
2022/09/03 04:29:03;;;;;;;1.83;1.20;;;20.40;47.40;;;;;;5056753;28;20032;-77
2022/09/03 04:31:29;;;;;;;1.63;1.20;;;20.40;47.70;;;;;;5051920;28;20153;-77
2022/09/03 04:33:55;;;;;;;1.98;1.30;;;20.40;47.60;;;;;;5063084;28;20454;-78
2022/09/03 04:36:23;;;;;;;2.13;1.27;;;20.30;47.50;;;;;;5070397;28;20111;-78
2022/09/03 04:38:52;;;;;;;1.50;1.30;;;20.30;47.80;;;;;;5077824;28;20027;-78
2022/09/03 04:41:24;;;;;;;1.55;1.23;;;20.30;47.90;;;;;;5051370;28;20024;-78
2022/09/03 04:43:55;;;;;;;1.20;1.10;;;20.30;48.30;;;;;;5057481;28;20032;-78
2022/09/03 04:46:24;;;;;;;1.77;1.25;;;20.30;48.40;;;;;;5065763;28;20587;-78
2022/09/03 04:48:52;;;;;;;1.70;1.20;;;20.30;48.10;;;;;;5066549;28;20055;-78
2022/09/03 04:51:21;;;;;;;1.30;1.20;;;20.30;48.10;;;;;;5068805;28;20016;-78
2022/09/03 04:53:52;;;;;;;1.50;1.35;;;20.30;48.30;;;;;;5060251;28;20035;-78
2022/09/03 04:56:18;;;;;;;1.67;1.30;;;20.30;48.30;;;;;;5036490;28;21341;-78
2022/09/03 04:58:45;;;;;;;1.85;1.35;;;20.30;48.20;;;;;;5070491;28;20051;-78
2022/09/03 05:01:15;;;;;;;1.57;1.33;;;20.30;48.30;;;;;;5054763;28;20089;-78
2022/09/03 05:03:41;;;;;;;1.50;1.20;;;20.30;48.40;;;;;;5042951;28;20020;-78
2022/09/03 05:06:07;;;;;;;1.90;1.20;;;20.30;48.30;;;;;;5042442;28;20039;-78
2022/09/03 05:08:35;;;;;;;1.67;1.20;;;20.30;48.50;;;;;;5052531;28;20319;-78
2022/09/03 05:11:03;;;;;;;1.40;1.30;;;20.30;48.50;;;;;;5059157;28;20020;-77
2022/09/03 05:13:28;;;;;;;1.20;1.10;;;20.30;48.60;;;;;;5064212;28;20022;-80
2022/09/03 05:15:59;;;;;;;2.05;1.50;;;20.30;49.30;;;;;;5064991;28;20442;-78
2022/09/03 05:18:25;;;;;;;1.83;1.42;;;20.30;49.00;;;;;;5061105;28;20251;-78
2022/09/03 05:20:58;;;;;;;1.50;1.20;;;20.30;48.60;;;;;;5068134;28;20380;-78
2022/09/03 05:23:24;;;;;;;1.58;1.30;;;20.30;49.10;;;;;;5049888;28;20383;-78
2022/09/03 05:26:01;;;;;;;1.77;1.40;;;20.30;48.60;;;;;;5074556;28;20094;-78
2022/09/03 05:28:29;;;;;;;1.30;1.17;;;20.30;49.60;;;;;;5062702;28;20024;-78
2022/09/03 05:31:03;;;;;;;1.65;1.20;;;20.30;48.90;;;;;;5064530;28;20032;-78
2022/09/03 05:33:33;;;;;;;1.40;1.23;;;20.30;49.50;;;;;;5050815;28;20024;-78
2022/09/03 05:36:08;;;;;;;5.13;1.30;;;20.30;49.30;;;;;;5060107;28;20024;-78
2022/09/03 05:38:34;;;;;;;1.58;1.20;;;20.30;49.50;;;;;;5046954;28;20040;-77
2022/09/03 05:41:02;;;;;;;1.60;1.13;;;20.30;49.00;;;;;;5050833;28;20034;-77
2022/09/03 05:43:29;;;;;;;1.80;1.20;;;20.30;49.90;;;;;;5052639;28;20380;-78
2022/09/03 05:46:01;;;;;;;1.83;1.40;;;20.30;49.10;;;;;;5036657;28;20433;-78
2022/09/03 05:48:32;;;;;;;2.65;1.30;;;20.30;49.40;;;;;;5046264;28;20439;-78
2022/09/03 05:51:06;;;;;;;2.88;1.30;;;20.30;49.40;;;;;;5068099;28;20032;-79
2022/09/03 05:53:34;;;;;;;1.50;1.30;;;20.30;49.60;;;;;;5059150;28;20416;-78
2022/09/03 05:56:04;;;;;;;2.00;1.10;;;20.30;49.50;;;;;;5048455;28;20040;-78
2022/09/03 05:58:35;;;;;;;2.20;1.13;;;20.30;49.40;;;;;;5047436;28;20400;-79
2022/09/03 06:01:12;;;;;;;1.73;1.10;;;20.30;49.70;;;;;;5038958;28;20036;-78
2022/09/03 06:03:37;;;;;;;1.40;1.20;;;20.30;50.10;;;;;;5052906;28;20417;-78
2022/09/03 06:06:04;;;;;;;2.60;1.20;;;20.30;49.50;;;;;;5044725;28;20055;-79
2022/09/03 06:08:29;;;;;;;1.92;1.20;;;20.30;49.40;;;;;;5048600;28;20409;-78
2022/09/03 06:11:00;;;;;;;2.23;1.20;;;20.30;49.40;;;;;;5048337;28;20028;-78
2022/09/03 06:13:26;;;;;;;2.78;1.20;;;20.30;49.90;;;;;;5032941;28;20037;-78
2022/09/03 06:16:04;;;;;;;2.63;1.17;;;20.30;49.60;;;;;;5067590;28;20024;-78
2022/09/03 06:18:30;;;;;;;1.37;1.00;;;20.40;50.40;;;;;;5036974;28;20519;-78
2022/09/03 06:20:58;;;;;;;2.13;1.20;;;20.40;49.70;;;;;;5053477;28;20044;-78
2022/09/03 06:23:25;;;;;;;2.65;1.30;;;20.40;49.80;;;;;;5059013;28;20520;-79
2022/09/03 06:26:08;;;;;;;2.67;1.15;;;20.50;49.90;;;;;;5066090;28;20504;-78
2022/09/03 06:28:36;;;;;;;2.67;1.17;;;20.50;50.70;;;;;;5029234;28;20047;-78
2022/09/03 06:31:04;;;;;;;2.70;1.13;;;20.50;50.00;;;;;;5065481;28;20036;-78
2022/09/03 06:33:32;;;;;;;1.58;1.30;;;20.50;50.00;;;;;;5062588;28;20580;-78
2022/09/03 06:36:02;;;;;;;2.75;1.20;;;20.60;49.90;;;;;;5062631;28;20039;-79
2022/09/03 06:38:30;;;;;;;1.50;1.15;;;20.60;49.80;;;;;;5042545;28;20232;-78
2022/09/03 06:41:02;;;;;;;1.27;1.10;;;20.60;49.90;;;;;;5069336;28;20480;-78
2022/09/03 06:43:30;;;;;;;1.30;1.13;;;20.70;49.90;;;;;;5053993;28;20670;-79
2022/09/03 06:46:01;;;;;;;2.15;1.20;;;20.70;49.90;;;;;;5049809;28;20582;-79
2022/09/03 06:48:29;;;;;;;2.35;1.02;;;20.80;50.10;;;;;;5057633;28;20660;-79
2022/09/03 06:51:19;;;;;;;2.45;1.10;;;20.80;49.80;;;;;;5054744;28;20016;-78
2022/09/03 06:53:47;;;;;;;1.20;1.00;;;20.90;50.30;;;;;;5063528;28;20470;-78
2022/09/03 06:56:24;;;;;;;1.03;0.93;;;20.90;50.10;;;;;;5048207;28;21024;-78
2022/09/03 06:58:52;;;;;;;1.77;1.00;;;21.00;50.10;;;;;;5047146;28;20507;-78
2022/09/03 07:01:20;;;;;;;1.55;1.10;;;21.10;50.10;;;;;;5051536;28;20037;-78
2022/09/03 07:03:51;;;;;;;3.80;1.10;;;21.10;50.30;;;;;;5048743;28;20401;-78
2022/09/03 07:06:20;;;;;;;1.27;1.10;;;21.20;50.40;;;;;;5066188;28;20565;-78
2022/09/03 07:08:46;;;;;;;1.50;1.03;;;21.40;50.40;;;;;;5062879;28;20445;-78
2022/09/03 07:11:15;;;;;;;1.88;1.20;;;21.40;50.30;;;;;;5060834;28;20131;-78
2022/09/03 07:13:43;;;;;;;1.35;1.20;;;21.50;50.60;;;;;;5053773;28;20461;-78
2022/09/03 07:16:17;;;;;;;2.35;1.08;;;21.60;50.60;;;;;;5035013;28;20563;-78
2022/09/03 07:18:44;;;;;;;2.17;1.20;;;21.80;50.60;;;;;;5066006;28;20272;-78
2022/09/03 07:21:21;;;;;;;3.30;1.10;;;21.90;50.40;;;;;;5050500;28;20557;-78
2022/09/03 07:23:48;;;;;;;2.80;1.23;;;22.00;50.50;;;;;;5073371;28;20029;-78
2022/09/03 07:26:17;;;;;;;2.55;1.20;;;22.20;50.40;;;;;;5072241;28;20338;-78
2022/09/03 07:28:44;;;;;;;2.28;1.20;;;22.30;50.20;;;;;;5073058;28;20477;-78
2022/09/03 07:31:14;;;;;;;1.40;1.20;;;22.40;50.10;;;;;;5048189;28;20401;-78
2022/09/03 07:33:42;;;;;;;2.40;1.00;;;22.60;50.30;;;;;;5091234;28;20351;-78
2022/09/03 07:36:15;;;;;;;1.30;1.10;;;22.80;50.40;;;;;;5063546;28;20035;-78
2022/09/03 07:38:43;;;;;;;2.70;1.20;;;22.90;50.40;;;;;;5067334;28;20452;-78
2022/09/03 07:41:10;;;;;;;2.20;1.20;;;23.10;50.40;;;;;;5069813;28;20078;-78
2022/09/03 07:43:39;;;;;;;1.80;1.30;;;23.40;50.30;;;;;;5078041;28;20020;-78
2022/09/03 07:46:12;;;;;;;1.20;1.10;;;23.60;50.10;;;;;;5039026;28;20072;-78
2022/09/03 07:48:42;;;;;;;1.73;1.10;;;23.80;50.00;;;;;;5084227;28;20032;-78
2022/09/03 07:51:09;;;;;;;2.38;1.20;;;24.00;49.80;;;;;;5061420;28;20148;-79
2022/09/03 07:53:35;;;;;;;1.80;1.25;;;24.20;50.00;;;;;;5078772;28;20039;-79
2022/09/03 07:56:06;;;;;;;1.40;1.30;;;24.50;50.00;;;;;;5049829;28;20265;-79
2022/09/03 07:58:33;;;;;;;2.15;1.27;;;24.80;50.40;;;;;;5074215;28;20127;-79
2022/09/03 08:01:06;;;;;;;1.27;1.10;;;25.30;51.00;;;;;;5060637;28;20032;-79
2022/09/03 08:03:31;;;;;;;1.45;1.20;;;25.80;51.00;;;;;;5061373;28;20513;-79
2022/09/03 08:06:06;;;;;;;2.00;1.33;;;26.40;51.60;;;;;;5030144;28;20217;-78
2022/09/03 08:08:34;;;;;;;1.98;1.30;;;27.10;51.30;;;;;;5065175;28;20036;-78
2022/09/03 08:11:12;;;;;;;1.92;1.27;;;27.70;50.80;;;;;;5067175;28;20221;-79
2022/09/03 08:13:43;;;;;;;2.20;1.20;;;28.40;48.60;;;;;;5064133;28;20025;-79
2022/09/03 08:16:13;;;;;;;1.73;1.23;;;29.00;49.00;;;;;;5038833;28;20027;-78
2022/09/03 08:18:39;;;;;;;1.30;1.20;;;29.50;48.40;;;;;;5027989;28;20036;-79
2022/09/03 08:21:14;;;;;;;1.58;1.30;;;30.00;48.10;;;;;;5060307;28;20032;-79
2022/09/03 08:23:42;;;;;;;1.50;1.40;;;30.60;46.10;;;;;;5029588;28;20241;-79
2022/09/03 08:26:09;;;;;;;1.30;1.20;;;31.00;46.20;;;;;;5049477;28;20258;-79
2022/09/03 08:28:35;;;;;;;1.40;1.30;;;31.40;45.50;;;;;;5073663;28;20086;-79
2022/09/03 08:31:12;;;;;;;2.00;1.30;;;31.70;44.40;;;;;;5034776;28;20023;-79
2022/09/03 08:33:43;;;;;;;1.35;1.15;;;31.90;42.70;;;;;;5034653;28;20028;-79
2022/09/03 08:36:24;;;;;;;2.08;1.40;;;32.00;42.30;;;;;;5068993;28;20024;-79
2022/09/03 08:38:53;;;;;;;1.30;1.20;;;32.00;41.30;;;;;;5041635;28;20042;-79
2022/09/03 08:41:22;;;;;;;1.17;1.10;;;31.90;41.30;;;;;;5068409;28;20012;-79
2022/09/03 08:44:22;;;;;;;2.03;1.38;;;31.80;40.80;;;;;;5065645;28;20232;-79
2022/09/03 08:47:07;;;;;;;1.98;1.30;;;31.70;40.60;;;;;;5044902;28;20462;-78
2022/09/03 08:50:11;;;;;;;1.50;1.40;;;31.60;41.10;;;;;;5046818;28;20041;-78
2022/09/03 08:52:48;;;;;;;1.45;1.30;;;31.80;41.50;;;;;;5063122;28;20112;-79
2022/09/03 08:55:32;;;;;;;1.80;1.30;;;32.00;42.10;;;;;;5059025;28;20025;-79
2022/09/03 08:58:17;;;;;;;1.40;1.30;;;32.30;41.80;;;;;;5059913;28;20031;-78
2022/09/03 09:00:48;;;;;;;1.60;1.50;;;32.80;42.60;;;;;;5067218;28;20300;-79
2022/09/03 09:03:26;;;;;;;2.22;1.52;;;33.30;43.30;;;;;;5031666;28;20153;-78
2022/09/03 09:06:15;;;;;;;1.60;1.30;;;33.80;42.20;;;;;;5052992;28;20032;-79
2022/09/03 09:09:19;;;;;;;2.33;1.60;;;34.30;41.20;;;;;;5051667;28;20617;-79
2022/09/03 09:12:37;;;;;;;2.38;1.55;;;34.70;40.60;;;;;;5055875;28;20032;-79
2022/09/03 09:15:48;;;;;;;2.28;1.52;;;35.20;40.00;;;;;;5063263;28;20085;-79
2022/09/03 09:18:47;;;;;;;1.88;1.60;;;35.70;39.10;;;;;;5018746;28;20040;-79
2022/09/03 09:21:44;;;;;;;2.00;1.60;;;36.20;38.90;;;;;;5043236;28;20125;-79
2022/09/03 09:24:47;;;;;;;1.80;1.60;;;36.60;37.80;;;;;;5050146;28;20528;-79
2022/09/03 09:27:18;;;;;;;2.38;1.52;;;36.80;37.40;;;;;;5057007;28;20036;-78
2022/09/03 09:29:48;;;;;;;2.83;2.00;;;37.10;37.50;;;;;;5064708;28;20500;-78
2022/09/03 09:32:16;;;;;;;1.88;1.45;;;37.30;36.90;;;;;;5047244;28;20830;-79
2022/09/03 09:34:42;;;;;;;1.88;1.70;;;37.50;36.70;;;;;;5061878;28;20020;-79
2022/09/03 09:37:14;;;;;;;1.70;1.60;;;37.70;36.40;;;;;;5044837;28;20225;-79
2022/09/03 09:39:52;;;;;;;1.83;1.60;;;37.90;35.10;;;;;;5032193;28;20043;-78
2022/09/03 09:42:21;;;;;;;2.60;2.40;;;38.10;35.30;;;;;;5070101;28;20376;-79
2022/09/03 09:44:47;;;;;;;2.72;2.05;;;38.30;34.30;;;;;;5043546;28;20457;-79
2022/09/03 09:47:25;;;;;;;2.13;1.90;;;38.30;34.40;;;;;;5026860;28;20028;-79
2022/09/03 09:49:58;;;;;;;1.92;1.70;;;38.50;33.10;;;;;;5041609;28;20707;-78
2022/09/03 09:52:27;;;;;;;2.17;1.60;;;38.50;33.40;;;;;;5051224;28;20035;-79
2022/09/03 09:55:06;;;;;;;1.88;1.77;;;38.50;33.20;;;;;;5061845;28;20023;-79
2022/09/03 09:57:33;;;;;;;2.20;2.00;;;38.70;33.10;;;;;;5049118;28;20514;-78
2022/09/03 10:00:28;;;;;;;1.70;1.60;;;38.80;32.90;;;;;;5053985;28;20115;-79
2022/09/03 10:02:54;;;;;;;2.08;1.88;;;39.00;32.60;;;;;;5027238;28;20424;-79
2022/09/03 10:05:24;;;;;;;2.55;2.35;;;39.00;32.40;;;;;;5053892;28;20035;-79
2022/09/03 10:07:59;;;;;;;2.10;1.90;;;39.10;31.80;;;;;;5050906;28;20202;-78
2022/09/03 10:10:26;;;;;;;2.37;2.17;;;39.20;31.20;;;;;;5061303;28;20028;-80
2022/09/03 10:13:11;;;;;;;2.47;2.28;;;39.30;31.80;;;;;;5053337;28;20101;-79
2022/09/03 10:15:46;;;;;;;2.28;2.08;;;39.40;30.60;;;;;;5039035;28;20385;-78
2022/09/03 10:18:30;;;;;;;2.47;2.13;;;39.60;30.90;;;;;;5061348;28;20439;-78
2022/09/03 10:21:09;;;;;;;2.10;1.90;;;39.70;30.20;;;;;;5034858;28;20295;-79
2022/09/03 10:23:58;;;;;;;2.37;1.93;;;39.80;30.20;;;;;;5051445;28;20082;-78
2022/09/03 10:26:28;;;;;;;1.73;1.63;;;39.70;29.40;;;;;;5062865;28;20023;-79
2022/09/03 10:28:57;;;;;;;2.35;1.52;;;39.40;29.40;;;;;;5068151;28;20012;-78
2022/09/03 10:32:01;;;;;;;2.53;1.70;;;39.10;29.20;;;;;;5043058;28;20021;-78
2022/09/03 10:34:45;;;;;;;1.75;1.65;;;38.70;29.20;;;;;;5043251;28;20358;-78
2022/09/03 10:37:32;;;;;;;2.33;1.60;;;38.20;29.30;;;;;;5062024;28;20039;-79
2022/09/03 10:40:27;;;;;;;2.00;1.70;;;37.90;29.60;;;;;;5056916;28;20036;-79
2022/09/03 10:43:12;;;;;;;1.60;1.50;;;37.60;29.80;;;;;;5040501;28;20064;-78
2022/09/03 10:45:58;;;;;;;2.08;1.50;;;37.30;30.00;;;;;;5051255;28;20257;-78
2022/09/03 10:48:45;;;;;;;2.03;1.80;;;37.00;30.10;;;;;;5061424;28;20051;-78
2022/09/03 10:51:35;;;;;;;2.03;1.83;;;36.80;30.50;;;;;;5043160;28;20039;-79
2022/09/03 10:54:35;;;;;;;2.25;1.70;;;36.60;31.50;;;;;;5056301;28;20032;-79
2022/09/03 10:57:30;;;;;;;1.80;1.70;;;36.50;31.10;;;;;;5059133;28;20032;-78
2022/09/03 11:00:12;;;;;;;2.00;1.90;;;36.40;31.70;;;;;;5055828;28;20031;-78
2022/09/03 11:03:11;;;;;;;3.63;1.70;;;36.40;31.90;;;;;;5045158;28;20043;-78
2022/09/03 11:05:47;;;;;;;2.10;1.90;;;36.50;32.40;;;;;;5059671;28;20392;-79
2022/09/03 11:08:22;;;;;;;2.67;1.67;;;36.60;32.00;;;;;;5049404;28;20046;-78
2022/09/03 11:10:55;;;;;;;2.85;2.00;;;36.70;32.10;;;;;;5052284;28;20055;-78
2022/09/03 11:13:34;;;;;;;2.20;2.00;;;36.70;31.90;;;;;;5040739;28;20262;-79
2022/09/03 11:16:25;;;;;;;2.40;1.80;;;36.80;32.10;;;;;;5071892;28;20492;-79
2022/09/03 11:19:02;;;;;;;2.37;2.00;;;37.00;32.20;;;;;;5054566;28;20029;-78
2022/09/03 11:21:30;;;;;;;2.30;2.10;;;37.20;32.60;;;;;;5055035;28;20702;-78
2022/09/03 11:24:12;;;;;;;2.20;2.00;;;37.60;33.20;;;;;;5073419;28;20016;-78
2022/09/03 11:26:40;;;;;;;2.13;2.00;;;37.90;32.90;;;;;;5065675;28;21921;-79
2022/09/03 11:29:42;;;;;;;2.45;2.25;;;38.30;32.80;;;;;;5054123;28;20430;-78
2022/09/03 11:32:24;;;;;;;2.10;2.00;;;38.60;32.20;;;;;;5066337;28;20029;-78
2022/09/03 11:34:53;;;;;;;1.88;1.75;;;38.90;32.30;;;;;;5060125;28;20029;-78
2022/09/03 11:37:23;;;;;;;2.45;2.00;;;39.00;31.30;;;;;;5056772;28;20215;-78
2022/09/03 11:39:58;;;;;;;1.75;1.58;;;39.10;31.00;;;;;;5022213;28;20028;-78
2022/09/03 11:42:31;;;;;;;2.15;1.83;;;39.10;30.50;;;;;;5055212;28;20801;-78
2022/09/03 11:45:33;;;;;;;2.00;1.90;;;39.10;30.50;;;;;;5059409;28;20118;-78
2022/09/03 11:47:59;;;;;;;2.13;1.92;;;39.00;30.30;;;;;;5071286;28;20028;-79
2022/09/03 11:50:32;;;;;;;1.90;1.70;;;38.90;30.40;;;;;;5061126;28;20085;-77
2022/09/03 11:53:10;;;;;;;2.10;1.88;;;38.90;30.10;;;;;;5055739;28;20024;-77
2022/09/03 11:56:11;;;;;;;2.20;2.00;;;38.70;29.90;;;;;;5059173;28;20028;-77
2022/09/03 11:58:41;;;;;;;2.47;2.25;;;38.60;30.40;;;;;;5054332;28;20073;-77
2022/09/03 12:01:10;;;;;;;2.00;1.80;;;38.60;31.00;;;;;;5055008;28;20040;-77
2022/09/03 12:03:45;;;;;;;2.60;2.35;;;38.80;31.10;;;;;;5071743;28;20078;-77
2022/09/03 12:06:50;;;;;;;2.30;2.10;;;39.10;31.30;;;;;;5067150;28;20020;-77
2022/09/03 12:09:44;;;;;;;2.67;2.43;;;39.40;31.20;;;;;;5060888;28;20142;-77
2022/09/03 12:12:29;;;;;;;2.08;1.88;;;39.70;31.00;;;;;;5039193;28;20021;-78
2022/09/03 12:15:08;;;;;;;2.25;2.08;;;40.00;30.00;;;;;;5064315;28;20297;-78
2022/09/03 12:17:40;;;;;;;1.90;1.80;;;40.20;29.80;;;;;;5051648;28;20651;-79
2022/09/03 12:20:14;;;;;;;2.30;2.10;;;40.20;29.80;;;;;;5058920;28;20028;-77
2022/09/03 12:22:40;;;;;;;2.90;2.63;;;40.20;29.40;;;;;;5058503;28;20531;-78
2022/09/03 12:25:11;;;;;;;2.40;2.20;;;40.20;29.50;;;;;;5054571;28;20024;-78
2022/09/03 12:27:37;;;;;;;2.40;2.20;;;40.30;29.60;;;;;;5049550;28;20038;-77
2022/09/03 12:30:12;;;;;;;2.53;2.33;;;40.30;29.60;;;;;;5067433;28;20020;-78
2022/09/03 12:32:39;;;;;;;2.40;2.20;;;40.30;29.30;;;;;;5058412;28;20574;-78
2022/09/03 12:35:16;;;;;;;2.00;1.90;;;40.30;29.00;;;;;;5058889;28;20032;-78
2022/09/03 12:37:44;;;;;;;1.98;1.85;;;40.20;28.60;;;;;;5043260;28;20036;-78
2022/09/03 12:40:21;;;;;;;1.95;1.85;;;40.00;28.60;;;;;;5028937;28;20055;-77
2022/09/03 12:42:47;;;;;;;1.80;1.70;;;39.90;28.30;;;;;;5018191;28;20148;-78
2022/09/03 12:45:17;;;;;;;2.10;1.90;;;39.60;28.60;;;;;;5065902;28;20020;-77
2022/09/03 12:47:43;;;;;;;2.40;2.20;;;39.50;28.80;;;;;;5050760;28;20171;-78
2022/09/03 12:50:19;;;;;;;2.92;2.10;;;39.40;28.70;;;;;;5061651;28;20152;-78
2022/09/03 12:52:52;;;;;;;2.00;1.80;;;39.20;28.70;;;;;;5056446;28;20028;-78
2022/09/03 12:55:37;;;;;;;2.20;1.85;;;38.90;28.60;;;;;;5057023;28;20078;-78
2022/09/03 12:58:22;;;;;;;2.10;1.90;;;38.70;28.60;;;;;;5033608;28;20036;-77
2022/09/03 13:00:56;;;;;;;2.03;1.83;;;38.50;28.90;;;;;;5047139;28;20135;-78
2022/09/03 13:03:28;;;;;;;2.38;1.90;;;38.30;29.20;;;;;;5066532;28;20459;-77
2022/09/03 13:06:01;;;;;;;2.65;2.05;;;38.20;29.20;;;;;;5064242;28;20374;-78
2022/09/03 13:08:31;;;;;;;2.00;1.80;;;38.10;29.20;;;;;;5061826;28;20741;-77
2022/09/03 13:11:02;;;;;;;2.00;1.70;;;37.80;28.90;;;;;;5039586;28;20040;-78
2022/09/03 13:13:35;;;;;;;1.95;1.75;;;37.50;28.90;;;;;;5055909;28;20074;-78
2022/09/03 13:16:10;;;;;;;1.90;1.80;;;37.10;29.00;;;;;;5071768;28;20027;-78
2022/09/03 13:18:48;;;;;;;2.00;1.80;;;36.80;29.20;;;;;;5062210;28;20256;-78
2022/09/03 13:21:43;;;;;;;2.05;1.85;;;36.40;29.50;;;;;;5056205;28;20484;-77
2022/09/03 13:24:12;;;;;;;3.40;1.77;;;36.20;30.10;;;;;;5054249;28;20451;-78
2022/09/03 13:27:04;;;;;;;1.90;1.80;;;35.90;30.00;;;;;;5042256;28;20547;-78
2022/09/03 13:29:38;;;;;;;2.72;1.73;;;35.80;30.60;;;;;;5040745;28;20024;-78